Time;durP1;ratioP1;P1;durP2;ratioP2;P2;SDS_P1;SDS_P2;PMS_P1;PMS_P2;Temp;Humidity;BMP_temperature;BMP_pressure;BME280_temperature;BME280_humidity;BME280_pressure;Samples;Min_cycle;Max_cycle;Signal;HPM_P1;HPM_P2
2020/01/14 00:00:06;;;;;;;2.45;2;;;;;;;-1.38;64.25879;95296.25;;;;
2020/01/14 00:01:07;;;;;;;2.45;2;;;;;;;-1.38;64.25879;95296.25;;;;
2020/01/14 00:02:08;;;;;;;2.45;2;;;;;;;-1.38;64.25879;95296.25;;;;
2020/01/14 00:03:08;;;;;;;2.45;2;;;;;;;-1.38;64.25879;95296.25;;;;
2020/01/14 00:04:08;;;;;;;2.45;2;;;;;;;-1.38;64.25879;95296.25;;;;
2020/01/14 00:05:09;;;;;;;2.45;2;;;;;;;-1.38;64.25879;95296.25;;;;
2020/01/14 00:06:10;;;;;;;2.45;2;;;;;;;-1.38;64.25879;95296.25;;;;
2020/01/14 00:07:10;;;;;;;2.45;2;;;;;;;-1.38;64.25879;95296.25;;;;
2020/01/14 00:08:11;;;;;;;2.45;2;;;;;;;-1.38;64.25879;95296.25;;;;
2020/01/14 00:09:11;;;;;;;2.45;2;;;;;;;-1.38;64.25879;95296.25;;;;
2020/01/14 00:10:12;;;;;;;2.45;2;;;;;;;-1.38;64.25879;95296.25;;;;
2020/01/14 00:11:12;;;;;;;2.45;2;;;;;;;-1.38;64.25879;95296.25;;;;
2020/01/14 00:12:13;;;;;;;2.45;2;;;;;;;-1.38;64.25879;95296.25;;;;
2020/01/14 00:13:13;;;;;;;2.45;2;;;;;;;-1.38;64.25879;95296.25;;;;
2020/01/14 00:14:13;;;;;;;2.45;2;;;;;;;-1.38;64.25879;95296.25;;;;
2020/01/14 00:15:14;;;;;;;3;2.05;;;;;;;-1.54;64.40137;95292.25;;;;
2020/01/14 00:16:14;;;;;;;3;2.05;;;;;;;-1.54;64.40137;95292.25;;;;
2020/01/14 00:17:15;;;;;;;3;2.05;;;;;;;-1.54;64.40137;95292.25;;;;
2020/01/14 00:18:15;;;;;;;3;2.05;;;;;;;-1.54;64.40137;95292.25;;;;
2020/01/14 00:19:16;;;;;;;3;2.05;;;;;;;-1.54;64.40137;95292.25;;;;
2020/01/14 00:20:16;;;;;;;3;2.05;;;;;;;-1.54;64.40137;95292.25;;;;
2020/01/14 00:21:16;;;;;;;3;2.05;;;;;;;-1.54;64.40137;95292.25;;;;
2020/01/14 00:22:17;;;;;;;3;2.05;;;;;;;-1.54;64.40137;95292.25;;;;
2020/01/14 00:23:18;;;;;;;3;2.05;;;;;;;-1.54;64.40137;95292.25;;;;
2020/01/14 00:24:18;;;;;;;3;2.05;;;;;;;-1.54;64.40137;95292.25;;;;
2020/01/14 00:25:19;;;;;;;1.9;1.7;;;;;;;-1.64;64.6582;95310.52;;;;
2020/01/14 00:26:20;;;;;;;1.9;1.7;;;;;;;-1.64;64.6582;95310.52;;;;
2020/01/14 00:27:20;;;;;;;1.9;1.7;;;;;;;-1.64;64.6582;95310.52;;;;
2020/01/14 00:28:20;;;;;;;1.9;1.7;;;;;;;-1.64;64.6582;95310.52;;;;
2020/01/14 00:29:21;;;;;;;1.9;1.7;;;;;;;-1.64;64.6582;95310.52;;;;
2020/01/14 00:30:21;;;;;;;1.9;1.7;;;;;;;-1.64;64.6582;95310.52;;;;
2020/01/14 00:31:22;;;;;;;1.9;1.7;;;;;;;-1.64;64.6582;95310.52;;;;
2020/01/14 00:32:22;;;;;;;1.9;1.7;;;;;;;-1.64;64.6582;95310.52;;;;
2020/01/14 00:33:23;;;;;;;1.9;1.7;;;;;;;-1.64;64.6582;95310.52;;;;
2020/01/14 00:34:55;;;;;;;1.9;1.7;;;;;;;-1.64;64.6582;95310.52;;;;
2020/01/14 00:35:56;;;;;;;2.3;1.7;;;;;;;-1.61;64.81934;95274.88;;;;
2020/01/14 00:36:56;;;;;;;2.3;1.7;;;;;;;-1.61;64.81934;95274.88;;;;
2020/01/14 00:37:57;;;;;;;2.3;1.7;;;;;;;-1.61;64.81934;95274.88;;;;
2020/01/14 00:38:57;;;;;;;2.3;1.7;;;;;;;-1.61;64.81934;95274.88;;;;
2020/01/14 00:39:58;;;;;;;2.3;1.7;;;;;;;-1.61;64.81934;95274.88;;;;
2020/01/14 00:40:58;;;;;;;2.3;1.7;;;;;;;-1.61;64.81934;95274.88;;;;
2020/01/14 00:41:58;;;;;;;2.3;1.7;;;;;;;-1.61;64.81934;95274.88;;;;
2020/01/14 00:43:30;;;;;;;2.3;1.7;;;;;;;-1.61;64.81934;95274.88;;;;
2020/01/14 00:44:37;;;;;;;2.3;1.7;;;;;;;-1.61;64.81934;95274.88;;;;
2020/01/14 00:46:00;;;;;;;2.3;1.7;;;;;;;-1.61;64.81934;95274.88;;;;
2020/01/14 00:47:09;;;;;;;2.3;1.7;;;;;;;-1.61;64.81934;95274.88;;;;
2020/01/14 00:51:43;;;;;;;2.3;1.7;;;;;;;-1.61;64.81934;95274.88;;;;
2020/01/14 00:52:44;;;;;;;2.3;1.7;;;;;;;-1.61;64.81934;95274.88;;;;
2020/01/14 00:53:45;;;;;;;2.3;1.7;;;;;;;-1.61;64.81934;95274.88;;;;
2020/01/14 00:54:45;;;;;;;2.3;1.7;;;;;;;-1.61;64.81934;95274.88;;;;
2020/01/14 00:55:45;;;;;;;2.3;1.7;;;;;;;-1.61;64.81934;95274.88;;;;
2020/01/14 00:56:46;;;;;;;2.3;1.7;;;;;;;-1.61;64.81934;95274.88;;;;
2020/01/14 00:57:46;;;;;;;2.2;1.5;;;;;;;-1.45;64.79199;95258.59;;;;
2020/01/14 00:58:47;;;;;;;2.2;1.5;;;;;;;-1.45;64.79199;95258.59;;;;
2020/01/14 00:59:47;;;;;;;2.2;1.5;;;;;;;-1.45;64.79199;95258.59;;;;
2020/01/14 01:00:47;;;;;;;2.2;1.5;;;;;;;-1.45;64.79199;95258.59;;;;
2020/01/14 01:01:50;;;;;;;2.2;1.5;;;;;;;-1.45;64.79199;95258.59;;;;
2020/01/14 01:02:51;;;;;;;2.2;1.5;;;;;;;-1.45;64.79199;95258.59;;;;
2020/01/14 01:03:52;;;;;;;2.2;1.5;;;;;;;-1.45;64.79199;95258.59;;;;
2020/01/14 01:04:52;;;;;;;2.2;1.5;;;;;;;-1.45;64.79199;95258.59;;;;
2020/01/14 01:05:52;;;;;;;2.2;1.5;;;;;;;-1.45;64.79199;95258.59;;;;
2020/01/14 01:06:53;;;;;;;2.2;1.5;;;;;;;-1.45;64.79199;95258.59;;;;
2020/01/14 01:07:54;;;;;;;2.2;1.5;;;;;;;-1.45;64.79199;95258.59;;;;
2020/01/14 01:08:54;;;;;;;2.05;1.55;;;;;;;-1.34;65.00684;95265.33;;;;
2020/01/14 01:09:55;;;;;;;2.05;1.55;;;;;;;-1.34;65.00684;95265.33;;;;
2020/01/14 01:10:56;;;;;;;2.05;1.55;;;;;;;-1.34;65.00684;95265.33;;;;
2020/01/14 01:11:56;;;;;;;2.05;1.55;;;;;;;-1.34;65.00684;95265.33;;;;
2020/01/14 01:12:56;;;;;;;2.05;1.55;;;;;;;-1.34;65.00684;95265.33;;;;
2020/01/14 01:13:57;;;;;;;2.05;1.55;;;;;;;-1.34;65.00684;95265.33;;;;
2020/01/14 01:14:57;;;;;;;2.05;1.55;;;;;;;-1.34;65.00684;95265.33;;;;
2020/01/14 01:15:58;;;;;;;2.05;1.55;;;;;;;-1.34;65.00684;95265.33;;;;
2020/01/14 01:16:58;;;;;;;2.05;1.55;;;;;;;-1.34;65.00684;95265.33;;;;
2020/01/14 01:17:59;;;;;;;2.05;1.55;;;;;;;-1.34;65.00684;95265.33;;;;
2020/01/14 01:18:59;;;;;;;1.95;1.4;;;;;;;-1.03;64.99023;95275.68;;;;
2020/01/14 01:20:00;;;;;;;1.95;1.4;;;;;;;-1.03;64.99023;95275.68;;;;
2020/01/14 01:21:00;;;;;;;1.95;1.4;;;;;;;-1.03;64.99023;95275.68;;;;
2020/01/14 01:22:01;;;;;;;1.95;1.4;;;;;;;-1.03;64.99023;95275.68;;;;
2020/01/14 01:23:01;;;;;;;1.95;1.4;;;;;;;-1.03;64.99023;95275.68;;;;
2020/01/14 01:24:01;;;;;;;1.95;1.4;;;;;;;-1.03;64.99023;95275.68;;;;
2020/01/14 01:26:19;;;;;;;1.95;1.4;;;;;;;-1.03;64.99023;95275.68;;;;
2020/01/14 01:27:19;;;;;;;1.95;1.4;;;;;;;-1.03;64.99023;95275.68;;;;
2020/01/14 01:28:20;;;;;;;1.95;1.4;;;;;;;-1.03;64.99023;95275.68;;;;
2020/01/14 01:29:20;;;;;;;1.6;1.4;;;;;;;-0.95;64.96191;95276.08;;;;
2020/01/14 01:30:21;;;;;;;1.6;1.4;;;;;;;-0.95;64.96191;95276.08;;;;
2020/01/14 01:31:32;;;;;;;1.6;1.4;;;;;;;-0.95;64.96191;95276.08;;;;
2020/01/14 01:32:32;;;;;;;1.6;1.4;;;;;;;-0.95;64.96191;95276.08;;;;
2020/01/14 01:33:33;;;;;;;1.6;1.4;;;;;;;-0.95;64.96191;95276.08;;;;
2020/01/14 01:34:33;;;;;;;1.6;1.4;;;;;;;-0.95;64.96191;95276.08;;;;
2020/01/14 01:35:34;;;;;;;1.6;1.4;;;;;;;-0.95;64.96191;95276.08;;;;
2020/01/14 01:36:36;;;;;;;1.6;1.4;;;;;;;-0.95;64.96191;95276.08;;;;
2020/01/14 01:37:37;;;;;;;1.6;1.4;;;;;;;-0.95;64.96191;95276.08;;;;
2020/01/14 01:38:37;;;;;;;1.6;1.4;;;;;;;-0.95;64.96191;95276.08;;;;
2020/01/14 01:39:38;;;;;;;1.6;1.4;;;;;;;-0.95;64.96191;95276.08;;;;
2020/01/14 01:40:38;;;;;;;2.2;1.5;;;;;;;-0.84;64.86328;95282.37;;;;
2020/01/14 01:41:38;;;;;;;2.2;1.5;;;;;;;-0.84;64.86328;95282.37;;;;
2020/01/14 01:42:39;;;;;;;2.2;1.5;;;;;;;-0.84;64.86328;95282.37;;;;
2020/01/14 01:43:39;;;;;;;2.2;1.5;;;;;;;-0.84;64.86328;95282.37;;;;
2020/01/14 01:44:47;;;;;;;2.2;1.5;;;;;;;-0.84;64.86328;95282.37;;;;
2020/01/14 01:45:47;;;;;;;2.2;1.5;;;;;;;-0.84;64.86328;95282.37;;;;
2020/01/14 01:46:48;;;;;;;2.2;1.5;;;;;;;-0.84;64.86328;95282.37;;;;
2020/01/14 01:47:49;;;;;;;2.2;1.5;;;;;;;-0.84;64.86328;95282.37;;;;
2020/01/14 01:48:50;;;;;;;2.2;1.5;;;;;;;-0.84;64.86328;95282.37;;;;
2020/01/14 01:49:50;;;;;;;2.2;1.5;;;;;;;-0.84;64.86328;95282.37;;;;
2020/01/14 01:50:51;;;;;;;2.5;1.3;;;;;;;-0.86;64.99609;95276.01;;;;
2020/01/14 01:51:51;;;;;;;2.5;1.3;;;;;;;-0.86;64.99609;95276.01;;;;
2020/01/14 01:52:51;;;;;;;2.5;1.3;;;;;;;-0.86;64.99609;95276.01;;;;
2020/01/14 01:53:53;;;;;;;2.5;1.3;;;;;;;-0.86;64.99609;95276.01;;;;
2020/01/14 01:54:53;;;;;;;2.5;1.3;;;;;;;-0.86;64.99609;95276.01;;;;
2020/01/14 01:55:53;;;;;;;2.5;1.3;;;;;;;-0.86;64.99609;95276.01;;;;
2020/01/14 01:56:54;;;;;;;2.5;1.3;;;;;;;-0.86;64.99609;95276.01;;;;
2020/01/14 01:58:00;;;;;;;2.5;1.3;;;;;;;-0.86;64.99609;95276.01;;;;
2020/01/14 01:59:06;;;;;;;2.5;1.3;;;;;;;-0.86;64.99609;95276.01;;;;
2020/01/14 02:00:08;;;;;;;2.5;1.3;;;;;;;-0.86;64.99609;95276.01;;;;
2020/01/14 02:05:01;;;;;;;1.55;1.3;;;;;;;-0.83;64.92969;95267.63;;;;
2020/01/14 02:06:15;;;;;;;1.55;1.3;;;;;;;-0.83;64.92969;95267.63;;;;
2020/01/14 02:07:21;;;;;;;1.55;1.3;;;;;;;-0.83;64.92969;95267.63;;;;
2020/01/14 02:08:22;;;;;;;1.55;1.3;;;;;;;-0.83;64.92969;95267.63;;;;
2020/01/14 02:09:22;;;;;;;1.55;1.3;;;;;;;-0.83;64.92969;95267.63;;;;
2020/01/14 02:10:31;;;;;;;1.55;1.3;;;;;;;-0.83;64.92969;95267.63;;;;
2020/01/14 02:11:32;;;;;;;1.55;1.3;;;;;;;-0.83;64.92969;95267.63;;;;
2020/01/14 02:12:32;;;;;;;1.55;1.3;;;;;;;-0.83;64.92969;95267.63;;;;
2020/01/14 02:13:33;;;;;;;1.55;1.3;;;;;;;-0.83;64.92969;95267.63;;;;
2020/01/14 02:14:33;;;;;;;1.55;1.3;;;;;;;-0.83;64.92969;95267.63;;;;
2020/01/14 02:15:34;;;;;;;1.55;1.3;;;;;;;-0.83;64.92969;95267.63;;;;
2020/01/14 02:16:34;;;;;;;1.55;1.3;;;;;;;-0.83;64.92969;95267.63;;;;
2020/01/14 02:17:34;;;;;;;1.55;1.3;;;;;;;-0.83;64.92969;95267.63;;;;
2020/01/14 02:18:35;;;;;;;1.55;1.3;;;;;;;-0.83;64.92969;95267.63;;;;
2020/01/14 02:19:35;;;;;;;1.55;1.3;;;;;;;-0.83;64.92969;95267.63;;;;
2020/01/14 02:20:36;;;;;;;1.55;1.3;;;;;;;-0.83;64.92969;95267.63;;;;
2020/01/14 02:21:40;;;;;;;1.55;1.3;;;;;;;-0.83;64.92969;95267.63;;;;
2020/01/14 02:22:41;;;;;;;2.7;1.5;;;;;;;-0.92;64.81055;95239.09;;;;
2020/01/14 02:23:41;;;;;;;2.7;1.5;;;;;;;-0.92;64.81055;95239.09;;;;
2020/01/14 02:24:42;;;;;;;2.7;1.5;;;;;;;-0.92;64.81055;95239.09;;;;
2020/01/14 02:25:42;;;;;;;2.7;1.5;;;;;;;-0.92;64.81055;95239.09;;;;
2020/01/14 02:26:43;;;;;;;2.7;1.5;;;;;;;-0.92;64.81055;95239.09;;;;
2020/01/14 02:27:43;;;;;;;2.7;1.5;;;;;;;-0.92;64.81055;95239.09;;;;
2020/01/14 02:28:44;;;;;;;2.7;1.5;;;;;;;-0.92;64.81055;95239.09;;;;
2020/01/14 02:29:44;;;;;;;2.7;1.5;;;;;;;-0.92;64.81055;95239.09;;;;
2020/01/14 02:30:45;;;;;;;2.7;1.5;;;;;;;-0.92;64.81055;95239.09;;;;
2020/01/14 02:31:45;;;;;;;2.7;1.5;;;;;;;-0.92;64.81055;95239.09;;;;
2020/01/14 02:32:46;;;;;;;2.7;1.5;;;;;;;-0.92;64.81055;95239.09;;;;
2020/01/14 02:37:48;;;;;;;1.5;1.3;;;;;;;-0.87;65.27734;95213.33;;;;
2020/01/14 02:38:49;;;;;;;1.5;1.3;;;;;;;-0.87;65.27734;95213.33;;;;
2020/01/14 02:39:49;;;;;;;1.5;1.3;;;;;;;-0.87;65.27734;95213.33;;;;
2020/01/14 02:40:50;;;;;;;1.5;1.3;;;;;;;-0.87;65.27734;95213.33;;;;
2020/01/14 02:41:50;;;;;;;1.5;1.3;;;;;;;-0.87;65.27734;95213.33;;;;
2020/01/14 02:42:51;;;;;;;1.5;1.3;;;;;;;-0.87;65.27734;95213.33;;;;
2020/01/14 02:43:51;;;;;;;1.7;1.3;;;;;;;-0.63;65.25098;95197.88;;;;
2020/01/14 02:44:51;;;;;;;1.7;1.3;;;;;;;-0.63;65.25098;95197.88;;;;
2020/01/14 02:45:52;;;;;;;1.7;1.3;;;;;;;-0.63;65.25098;95197.88;;;;
2020/01/14 02:46:52;;;;;;;1.7;1.3;;;;;;;-0.63;65.25098;95197.88;;;;
2020/01/14 02:47:53;;;;;;;1.7;1.3;;;;;;;-0.63;65.25098;95197.88;;;;
2020/01/14 02:48:53;;;;;;;1.7;1.3;;;;;;;-0.63;65.25098;95197.88;;;;
2020/01/14 02:49:54;;;;;;;1.7;1.3;;;;;;;-0.63;65.25098;95197.88;;;;
2020/01/14 02:50:54;;;;;;;1.7;1.3;;;;;;;-0.63;65.25098;95197.88;;;;
2020/01/14 02:51:54;;;;;;;1.7;1.3;;;;;;;-0.63;65.25098;95197.88;;;;
2020/01/14 02:52:55;;;;;;;1.7;1.3;;;;;;;-0.63;65.25098;95197.88;;;;
2020/01/14 02:53:55;;;;;;;1.7;1.3;;;;;;;-0.63;65.25098;95197.88;;;;
2020/01/14 02:54:56;;;;;;;2.1;1.6;;;;;;;-0.5;65.19824;95178.25;;;;
2020/01/14 02:55:56;;;;;;;2.1;1.6;;;;;;;-0.5;65.19824;95178.25;;;;
2020/01/14 02:56:57;;;;;;;2.1;1.6;;;;;;;-0.5;65.19824;95178.25;;;;
2020/01/14 02:57:57;;;;;;;2.1;1.6;;;;;;;-0.5;65.19824;95178.25;;;;
2020/01/14 02:58:58;;;;;;;2.1;1.6;;;;;;;-0.5;65.19824;95178.25;;;;
2020/01/14 02:59:58;;;;;;;2.1;1.6;;;;;;;-0.5;65.19824;95178.25;;;;
2020/01/14 03:00:59;;;;;;;2.1;1.6;;;;;;;-0.5;65.19824;95178.25;;;;
2020/01/14 03:01:59;;;;;;;2.1;1.6;;;;;;;-0.5;65.19824;95178.25;;;;
2020/01/14 03:02:59;;;;;;;2.1;1.6;;;;;;;-0.5;65.19824;95178.25;;;;
2020/01/14 03:04:01;;;;;;;2.1;1.6;;;;;;;-0.5;65.19824;95178.25;;;;
2020/01/14 03:05:02;;;;;;;2.1;1.6;;;;;;;-0.5;65.19824;95178.25;;;;
2020/01/14 03:06:02;;;;;;;1.9;1.5;;;;;;;-0.29;64.92773;95176.26;;;;
2020/01/14 03:07:03;;;;;;;1.9;1.5;;;;;;;-0.29;64.92773;95176.26;;;;
2020/01/14 03:08:04;;;;;;;1.9;1.5;;;;;;;-0.29;64.92773;95176.26;;;;
2020/01/14 03:09:05;;;;;;;1.9;1.5;;;;;;;-0.29;64.92773;95176.26;;;;
2020/01/14 03:10:27;;;;;;;1.9;1.5;;;;;;;-0.29;64.92773;95176.26;;;;
2020/01/14 03:11:27;;;;;;;1.9;1.5;;;;;;;-0.29;64.92773;95176.26;;;;
2020/01/14 03:12:28;;;;;;;1.9;1.5;;;;;;;-0.29;64.92773;95176.26;;;;
2020/01/14 03:13:28;;;;;;;1.9;1.5;;;;;;;-0.29;64.92773;95176.26;;;;
2020/01/14 03:14:29;;;;;;;1.9;1.5;;;;;;;-0.29;64.92773;95176.26;;;;
2020/01/14 03:15:29;;;;;;;1.9;1.5;;;;;;;-0.29;64.92773;95176.26;;;;
2020/01/14 03:16:30;;;;;;;1.6;1.4;;;;;;;-0.36;64.70605;95162.56;;;;
2020/01/14 03:17:30;;;;;;;1.6;1.4;;;;;;;-0.36;64.70605;95162.56;;;;
2020/01/14 03:18:31;;;;;;;1.6;1.4;;;;;;;-0.36;64.70605;95162.56;;;;
2020/01/14 03:19:31;;;;;;;1.6;1.4;;;;;;;-0.36;64.70605;95162.56;;;;
2020/01/14 03:20:32;;;;;;;1.6;1.4;;;;;;;-0.36;64.70605;95162.56;;;;
2020/01/14 03:21:32;;;;;;;1.6;1.4;;;;;;;-0.36;64.70605;95162.56;;;;
2020/01/14 03:22:33;;;;;;;1.6;1.4;;;;;;;-0.36;64.70605;95162.56;;;;
2020/01/14 03:23:33;;;;;;;1.6;1.4;;;;;;;-0.36;64.70605;95162.56;;;;
2020/01/14 03:24:34;;;;;;;1.6;1.4;;;;;;;-0.36;64.70605;95162.56;;;;
2020/01/14 03:25:34;;;;;;;1.6;1.4;;;;;;;-0.36;64.70605;95162.56;;;;
2020/01/14 03:26:35;;;;;;;1.85;1.35;;;;;;;-0.41;64.69922;95161.31;;;;
2020/01/14 03:27:35;;;;;;;1.85;1.35;;;;;;;-0.41;64.69922;95161.31;;;;
2020/01/14 03:28:36;;;;;;;1.85;1.35;;;;;;;-0.41;64.69922;95161.31;;;;
2020/01/14 03:29:36;;;;;;;1.85;1.35;;;;;;;-0.41;64.69922;95161.31;;;;
2020/01/14 03:30:36;;;;;;;1.85;1.35;;;;;;;-0.41;64.69922;95161.31;;;;
2020/01/14 03:31:37;;;;;;;1.85;1.35;;;;;;;-0.41;64.69922;95161.31;;;;
2020/01/14 03:32:37;;;;;;;1.85;1.35;;;;;;;-0.41;64.69922;95161.31;;;;
2020/01/14 03:33:38;;;;;;;1.85;1.35;;;;;;;-0.41;64.69922;95161.31;;;;
2020/01/14 03:34:38;;;;;;;1.85;1.35;;;;;;;-0.41;64.69922;95161.31;;;;
2020/01/14 03:35:39;;;;;;;1.85;1.35;;;;;;;-0.41;64.69922;95161.31;;;;
2020/01/14 03:36:39;;;;;;;1.85;1.35;;;;;;;-0.41;64.69922;95161.31;;;;
2020/01/14 03:37:39;;;;;;;1.8;1.35;;;;;;;-0.57;64.64453;95168.84;;;;
2020/01/14 03:38:40;;;;;;;1.8;1.35;;;;;;;-0.57;64.64453;95168.84;;;;
2020/01/14 03:39:40;;;;;;;1.8;1.35;;;;;;;-0.57;64.64453;95168.84;;;;
2020/01/14 03:40:43;;;;;;;1.8;1.35;;;;;;;-0.57;64.64453;95168.84;;;;
2020/01/14 03:41:44;;;;;;;1.8;1.35;;;;;;;-0.57;64.64453;95168.84;;;;
2020/01/14 03:42:45;;;;;;;1.8;1.35;;;;;;;-0.57;64.64453;95168.84;;;;
2020/01/14 03:43:45;;;;;;;1.8;1.35;;;;;;;-0.57;64.64453;95168.84;;;;
2020/01/14 03:44:50;;;;;;;1.8;1.35;;;;;;;-0.57;64.64453;95168.84;;;;
2020/01/14 03:46:14;;;;;;;1.8;1.35;;;;;;;-0.57;64.64453;95168.84;;;;
2020/01/14 03:47:20;;;;;;;1.8;1.35;;;;;;;-0.57;64.64453;95168.84;;;;
2020/01/14 03:48:43;;;;;;;1.95;1.2;;;;;;;-0.54;64.66797;95159.31;;;;
2020/01/14 03:49:52;;;;;;;1.95;1.2;;;;;;;-0.54;64.66797;95159.31;;;;
2020/01/14 03:50:53;;;;;;;1.95;1.2;;;;;;;-0.54;64.66797;95159.31;;;;
2020/01/14 03:52:00;;;;;;;1.95;1.2;;;;;;;-0.54;64.66797;95159.31;;;;
2020/01/14 03:53:01;;;;;;;1.95;1.2;;;;;;;-0.54;64.66797;95159.31;;;;
2020/01/14 03:54:37;;;;;;;1.95;1.2;;;;;;;-0.54;64.66797;95159.31;;;;
2020/01/14 03:56:01;;;;;;;1.95;1.2;;;;;;;-0.54;64.66797;95159.31;;;;
2020/01/14 03:57:12;;;;;;;1.95;1.2;;;;;;;-0.54;64.66797;95159.31;;;;
2020/01/14 03:58:52;;;;;;;1.15;1;;;;;;;-0.61;64.46973;95153.85;;;;
2020/01/14 03:59:59;;;;;;;1.15;1;;;;;;;-0.61;64.46973;95153.85;;;;
2020/01/14 04:02:11;;;;;;;1.15;1;;;;;;;-0.61;64.46973;95153.85;;;;
2020/01/14 04:03:33;;;;;;;1.15;1;;;;;;;-0.61;64.46973;95153.85;;;;
2020/01/14 04:04:33;;;;;;;1.15;1;;;;;;;-0.61;64.46973;95153.85;;;;
2020/01/14 04:05:34;;;;;;;1.15;1;;;;;;;-0.61;64.46973;95153.85;;;;
2020/01/14 04:06:35;;;;;;;1.15;1;;;;;;;-0.61;64.46973;95153.85;;;;
2020/01/14 04:07:35;;;;;;;1.15;1;;;;;;;-0.61;64.46973;95153.85;;;;
2020/01/14 04:08:36;;;;;;;1.15;1;;;;;;;-0.61;64.46973;95153.85;;;;
2020/01/14 04:09:36;;;;;;;1.35;1.25;;;;;;;-0.74;64.46191;95152.26;;;;
2020/01/14 04:10:37;;;;;;;1.35;1.25;;;;;;;-0.74;64.46191;95152.26;;;;
2020/01/14 04:11:37;;;;;;;1.35;1.25;;;;;;;-0.74;64.46191;95152.26;;;;
2020/01/14 04:12:37;;;;;;;1.35;1.25;;;;;;;-0.74;64.46191;95152.26;;;;
2020/01/14 04:13:38;;;;;;;1.35;1.25;;;;;;;-0.74;64.46191;95152.26;;;;
2020/01/14 04:14:38;;;;;;;1.35;1.25;;;;;;;-0.74;64.46191;95152.26;;;;
2020/01/14 04:15:39;;;;;;;1.35;1.25;;;;;;;-0.74;64.46191;95152.26;;;;
2020/01/14 04:16:39;;;;;;;1.35;1.25;;;;;;;-0.74;64.46191;95152.26;;;;
2020/01/14 04:17:40;;;;;;;1.35;1.25;;;;;;;-0.74;64.46191;95152.26;;;;
2020/01/14 04:18:42;;;;;;;1.35;1.25;;;;;;;-0.74;64.46191;95152.26;;;;
2020/01/14 04:19:42;;;;;;;1.2;1.1;;;;;;;-0.92;64.58105;95154.3;;;;
2020/01/14 04:20:43;;;;;;;1.2;1.1;;;;;;;-0.92;64.58105;95154.3;;;;
2020/01/14 04:21:43;;;;;;;1.2;1.1;;;;;;;-0.92;64.58105;95154.3;;;;
2020/01/14 04:22:44;;;;;;;1.2;1.1;;;;;;;-0.92;64.58105;95154.3;;;;
2020/01/14 04:23:44;;;;;;;1.2;1.1;;;;;;;-0.92;64.58105;95154.3;;;;
2020/01/14 04:24:45;;;;;;;1.2;1.1;;;;;;;-0.92;64.58105;95154.3;;;;
2020/01/14 04:25:45;;;;;;;1.2;1.1;;;;;;;-0.92;64.58105;95154.3;;;;
2020/01/14 04:26:46;;;;;;;1.2;1.1;;;;;;;-0.92;64.58105;95154.3;;;;
2020/01/14 04:27:51;;;;;;;1.2;1.1;;;;;;;-0.92;64.58105;95154.3;;;;
2020/01/14 04:28:52;;;;;;;1.2;1.1;;;;;;;-0.92;64.58105;95154.3;;;;
2020/01/14 04:29:54;;;;;;;1.3;1.2;;;;;;;-0.99;64.60059;95152.91;;;;
2020/01/14 04:30:57;;;;;;;1.3;1.2;;;;;;;-0.99;64.60059;95152.91;;;;
2020/01/14 04:32:00;;;;;;;1.3;1.2;;;;;;;-0.99;64.60059;95152.91;;;;
2020/01/14 04:33:03;;;;;;;1.3;1.2;;;;;;;-0.99;64.60059;95152.91;;;;
2020/01/14 04:34:04;;;;;;;1.3;1.2;;;;;;;-0.99;64.60059;95152.91;;;;
2020/01/14 04:35:04;;;;;;;1.3;1.2;;;;;;;-0.99;64.60059;95152.91;;;;
2020/01/14 04:36:05;;;;;;;1.3;1.2;;;;;;;-0.99;64.60059;95152.91;;;;
2020/01/14 04:37:09;;;;;;;1.3;1.2;;;;;;;-0.99;64.60059;95152.91;;;;
2020/01/14 04:38:09;;;;;;;1.3;1.2;;;;;;;-0.99;64.60059;95152.91;;;;
2020/01/14 04:39:10;;;;;;;1.3;1.2;;;;;;;-0.99;64.60059;95152.91;;;;
2020/01/14 04:40:13;;;;;;;1.3;1.2;;;;;;;-0.99;64.60059;95152.91;;;;
2020/01/14 04:41:14;;;;;;;2;1.2;;;;;;;-0.98;64.74902;95152.81;;;;
2020/01/14 04:42:20;;;;;;;2;1.2;;;;;;;-0.98;64.74902;95152.81;;;;
2020/01/14 04:43:46;;;;;;;2;1.2;;;;;;;-0.98;64.74902;95152.81;;;;
2020/01/14 04:45:05;;;;;;;2;1.2;;;;;;;-0.98;64.74902;95152.81;;;;
2020/01/14 04:46:08;;;;;;;2;1.2;;;;;;;-0.98;64.74902;95152.81;;;;
2020/01/14 04:47:18;;;;;;;2;1.2;;;;;;;-0.98;64.74902;95152.81;;;;
2020/01/14 04:48:43;;;;;;;2;1.2;;;;;;;-0.98;64.74902;95152.81;;;;
2020/01/14 04:49:53;;;;;;;2;1.2;;;;;;;-0.98;64.74902;95152.81;;;;
2020/01/14 04:51:01;;;;;;;2;1.2;;;;;;;-0.98;64.74902;95152.81;;;;
2020/01/14 04:52:02;;;;;;;1.4;1.1;;;;;;;-0.76;64.71875;95159.14;;;;
2020/01/14 04:53:04;;;;;;;1.4;1.1;;;;;;;-0.76;64.71875;95159.14;;;;
2020/01/14 04:54:25;;;;;;;1.4;1.1;;;;;;;-0.76;64.71875;95159.14;;;;
2020/01/14 04:55:27;;;;;;;1.4;1.1;;;;;;;-0.76;64.71875;95159.14;;;;
2020/01/14 04:56:29;;;;;;;1.4;1.1;;;;;;;-0.76;64.71875;95159.14;;;;
2020/01/14 04:57:29;;;;;;;1.4;1.1;;;;;;;-0.76;64.71875;95159.14;;;;
2020/01/14 04:58:30;;;;;;;1.4;1.1;;;;;;;-0.76;64.71875;95159.14;;;;
2020/01/14 04:59:30;;;;;;;1.4;1.1;;;;;;;-0.76;64.71875;95159.14;;;;
2020/01/14 05:00:31;;;;;;;1.4;1.1;;;;;;;-0.76;64.71875;95159.14;;;;
2020/01/14 05:01:31;;;;;;;1.4;1.1;;;;;;;-0.76;64.71875;95159.14;;;;
2020/01/14 05:02:32;;;;;;;1.4;1.1;;;;;;;-0.52;64.52637;95151.5;;;;
2020/01/14 05:03:32;;;;;;;1.4;1.1;;;;;;;-0.52;64.52637;95151.5;;;;
2020/01/14 05:04:33;;;;;;;1.4;1.1;;;;;;;-0.52;64.52637;95151.5;;;;
2020/01/14 05:05:33;;;;;;;1.4;1.1;;;;;;;-0.52;64.52637;95151.5;;;;
2020/01/14 05:06:34;;;;;;;1.4;1.1;;;;;;;-0.52;64.52637;95151.5;;;;
2020/01/14 05:07:34;;;;;;;1.4;1.1;;;;;;;-0.52;64.52637;95151.5;;;;
2020/01/14 05:08:35;;;;;;;1.4;1.1;;;;;;;-0.52;64.52637;95151.5;;;;
2020/01/14 05:09:35;;;;;;;1.4;1.1;;;;;;;-0.52;64.52637;95151.5;;;;
2020/01/14 05:10:36;;;;;;;1.4;1.1;;;;;;;-0.52;64.52637;95151.5;;;;
2020/01/14 05:11:36;;;;;;;1.4;1.1;;;;;;;-0.52;64.52637;95151.5;;;;
2020/01/14 05:12:37;;;;;;;2;1.1;;;;;;;-0.26;64.27246;95149.49;;;;
2020/01/14 05:13:38;;;;;;;2;1.1;;;;;;;-0.26;64.27246;95149.49;;;;
2020/01/14 05:14:38;;;;;;;2;1.1;;;;;;;-0.26;64.27246;95149.49;;;;
2020/01/14 05:15:39;;;;;;;2;1.1;;;;;;;-0.26;64.27246;95149.49;;;;
2020/01/14 05:16:39;;;;;;;2;1.1;;;;;;;-0.26;64.27246;95149.49;;;;
2020/01/14 05:17:40;;;;;;;2;1.1;;;;;;;-0.26;64.27246;95149.49;;;;
2020/01/14 05:18:40;;;;;;;2;1.1;;;;;;;-0.26;64.27246;95149.49;;;;
2020/01/14 05:19:41;;;;;;;2;1.1;;;;;;;-0.26;64.27246;95149.49;;;;
2020/01/14 05:20:41;;;;;;;2;1.1;;;;;;;-0.26;64.27246;95149.49;;;;
2020/01/14 05:21:42;;;;;;;2;1.1;;;;;;;-0.26;64.27246;95149.49;;;;
2020/01/14 05:22:42;;;;;;;2;1.1;;;;;;;-0.26;64.27246;95149.49;;;;
2020/01/14 05:23:43;;;;;;;1.5;1.2;;;;;;;-0.17;64.09766;95159.47;;;;
2020/01/14 05:24:44;;;;;;;1.5;1.2;;;;;;;-0.17;64.09766;95159.47;;;;
2020/01/14 05:25:44;;;;;;;1.5;1.2;;;;;;;-0.17;64.09766;95159.47;;;;
2020/01/14 05:26:44;;;;;;;1.5;1.2;;;;;;;-0.17;64.09766;95159.47;;;;
2020/01/14 05:27:45;;;;;;;1.5;1.2;;;;;;;-0.17;64.09766;95159.47;;;;
2020/01/14 05:28:46;;;;;;;1.5;1.2;;;;;;;-0.17;64.09766;95159.47;;;;
2020/01/14 05:29:47;;;;;;;1.5;1.2;;;;;;;-0.17;64.09766;95159.47;;;;
2020/01/14 05:30:47;;;;;;;1.5;1.2;;;;;;;-0.17;64.09766;95159.47;;;;
2020/01/14 05:31:48;;;;;;;1.5;1.2;;;;;;;-0.17;64.09766;95159.47;;;;
2020/01/14 05:32:48;;;;;;;1.5;1.2;;;;;;;-0.17;64.09766;95159.47;;;;
2020/01/14 05:33:49;;;;;;;1.5;1.2;;;;;;;-0.17;64.09766;95159.47;;;;
2020/01/14 05:34:50;;;;;;;1.5;1.2;;;;;;;-0.17;64.09766;95159.47;;;;
2020/01/14 05:35:52;;;;;;;1.5;1.2;;;;;;;-0.17;64.09766;95159.47;;;;
2020/01/14 05:37:03;;;;;;;1.5;1.2;;;;;;;-0.17;64.09766;95159.47;;;;
2020/01/14 05:38:24;;;;;;;1.5;1.2;;;;;;;-0.17;64.09766;95159.47;;;;
2020/01/14 05:39:33;;;;;;;1.5;1.2;;;;;;;-0.17;64.09766;95159.47;;;;
2020/01/14 05:41:36;;;;;;;1.5;1.2;;;;;;;-0.17;64.09766;95159.47;;;;
2020/01/14 05:42:44;;;;;;;1.5;1.2;;;;;;;-0.17;64.09766;95159.47;;;;
2020/01/14 05:43:51;;;;;;;1.5;1.2;;;;;;;-0.17;64.09766;95159.47;;;;
2020/01/14 05:44:57;;;;;;;1.2;1.1;;;;;;;0.13;63.64941;95175.08;;;;
2020/01/14 05:47:26;;;;;;;1.2;1.1;;;;;;;0.13;63.64941;95175.08;;;;
2020/01/14 05:48:33;;;;;;;1.2;1.1;;;;;;;0.13;63.64941;95175.08;;;;
2020/01/14 05:49:40;;;;;;;1.2;1.1;;;;;;;0.13;63.64941;95175.08;;;;
2020/01/14 05:50:43;;;;;;;1.2;1.1;;;;;;;0.13;63.64941;95175.08;;;;
2020/01/14 05:51:43;;;;;;;1.2;1.1;;;;;;;0.13;63.64941;95175.08;;;;
2020/01/14 05:52:44;;;;;;;1.2;1.1;;;;;;;0.13;63.64941;95175.08;;;;
2020/01/14 05:53:45;;;;;;;1.2;1.1;;;;;;;0.13;63.64941;95175.08;;;;
2020/01/14 05:54:45;;;;;;;1.2;1.1;;;;;;;0.13;63.64941;95175.08;;;;
2020/01/14 05:55:45;;;;;;;1.3;1.1;;;;;;;0.05;63.61621;95176.44;;;;
2020/01/14 05:56:46;;;;;;;1.3;1.1;;;;;;;0.05;63.61621;95176.44;;;;
2020/01/14 05:57:46;;;;;;;1.3;1.1;;;;;;;0.05;63.61621;95176.44;;;;
2020/01/14 05:58:47;;;;;;;1.3;1.1;;;;;;;0.05;63.61621;95176.44;;;;
2020/01/14 05:59:47;;;;;;;1.3;1.1;;;;;;;0.05;63.61621;95176.44;;;;
2020/01/14 06:00:48;;;;;;;1.3;1.1;;;;;;;0.05;63.61621;95176.44;;;;
2020/01/14 06:01:48;;;;;;;1.3;1.1;;;;;;;0.05;63.61621;95176.44;;;;
2020/01/14 06:02:49;;;;;;;1.3;1.1;;;;;;;0.05;63.61621;95176.44;;;;
2020/01/14 06:03:49;;;;;;;1.3;1.1;;;;;;;0.05;63.61621;95176.44;;;;
2020/01/14 06:04:49;;;;;;;1.3;1.1;;;;;;;0.05;63.61621;95176.44;;;;
2020/01/14 06:05:50;;;;;;;1.25;1.05;;;;;;;-0.2;63.70508;95177.98;;;;
2020/01/14 06:06:50;;;;;;;1.25;1.05;;;;;;;-0.2;63.70508;95177.98;;;;
2020/01/14 06:07:51;;;;;;;1.25;1.05;;;;;;;-0.2;63.70508;95177.98;;;;
2020/01/14 06:08:51;;;;;;;1.25;1.05;;;;;;;-0.2;63.70508;95177.98;;;;
2020/01/14 06:09:52;;;;;;;1.25;1.05;;;;;;;-0.2;63.70508;95177.98;;;;
2020/01/14 06:10:52;;;;;;;1.25;1.05;;;;;;;-0.2;63.70508;95177.98;;;;
2020/01/14 06:11:53;;;;;;;1.25;1.05;;;;;;;-0.2;63.70508;95177.98;;;;
2020/01/14 06:12:53;;;;;;;1.25;1.05;;;;;;;-0.2;63.70508;95177.98;;;;
2020/01/14 06:13:53;;;;;;;1.25;1.05;;;;;;;-0.2;63.70508;95177.98;;;;
2020/01/14 06:14:54;;;;;;;1.25;1.05;;;;;;;-0.2;63.70508;95177.98;;;;
2020/01/14 06:15:54;;;;;;;1.25;1.05;;;;;;;-0.2;63.70508;95177.98;;;;
2020/01/14 06:16:55;;;;;;;3.3;1.5;;;;;;;-0.25;63.9082;95186.86;;;;
2020/01/14 06:17:55;;;;;;;3.3;1.5;;;;;;;-0.25;63.9082;95186.86;;;;
2020/01/14 06:18:55;;;;;;;3.3;1.5;;;;;;;-0.25;63.9082;95186.86;;;;